createdAt,value
2023-02-22T00:01:08.260Z,14.33
2023-02-22T00:03:36.616Z,15.03
2023-02-22T00:06:07.889Z,14.10
2023-02-22T00:08:38.237Z,11.97
2023-02-22T00:11:09.990Z,12.03
2023-02-22T00:13:39.654Z,10.67
2023-02-22T00:16:08.484Z,9.23
2023-02-22T00:18:37.812Z,8.80
2023-02-22T00:21:10.672Z,8.60
2023-02-22T00:23:46.421Z,9.90
2023-02-22T00:26:18.416Z,9.57
2023-02-22T00:28:50.013Z,9.20
2023-02-22T00:31:18.797Z,9.50
2023-02-22T00:33:47.860Z,9.47
2023-02-22T00:36:17.566Z,8.87
2023-02-22T00:38:45.892Z,10.70
2023-02-22T00:41:14.442Z,8.90
2023-02-22T00:43:43.005Z,11.97
2023-02-22T00:46:11.347Z,9.27
2023-02-22T00:48:39.639Z,11.97
2023-02-22T00:51:08.053Z,10.03
2023-02-22T00:53:37.732Z,8.37
2023-02-22T00:56:07.157Z,8.73
2023-02-22T00:58:35.454Z,9.43
2023-02-22T01:01:03.845Z,8.53
2023-02-22T01:03:32.590Z,7.67
2023-02-22T01:06:01.157Z,10.40
2023-02-22T01:08:31.193Z,12.63
2023-02-22T01:11:00.916Z,10.80
2023-02-22T01:13:29.232Z,8.10
2023-02-22T01:15:57.777Z,8.43
2023-02-22T01:18:26.907Z,8.07
2023-02-22T01:20:55.334Z,7.30
2023-02-22T01:23:23.655Z,11.00
2023-02-22T01:25:52.008Z,8.43
2023-02-22T01:28:22.520Z,8.47
2023-02-22T01:30:51.954Z,7.17
2023-02-22T01:33:20.422Z,10.03
2023-02-22T01:35:50.874Z,10.57
2023-02-22T01:38:19.398Z,10.30
2023-02-22T01:40:50.865Z,9.57
2023-02-22T01:43:25.621Z,8.53
2023-02-22T01:46:01.461Z,11.30
2023-02-22T01:48:40.227Z,9.73
2023-02-22T01:51:15.195Z,7.67
2023-02-22T01:53:50.063Z,12.03
2023-02-22T01:56:20.603Z,11.00
2023-02-22T01:58:54.235Z,9.57
2023-02-22T02:01:31.059Z,9.47
2023-02-22T02:04:06.705Z,10.07
2023-02-22T02:06:39.217Z,7.97
2023-02-22T02:09:15.819Z,9.63
2023-02-22T02:11:44.618Z,9.73
2023-02-22T02:14:15.250Z,9.90
2023-02-22T02:16:47.487Z,8.77
2023-02-22T02:19:38.498Z,7.03
2023-02-22T02:22:25.590Z,12.83
2023-02-22T02:25:45.259Z,8.83
2023-02-22T02:28:44.624Z,9.70
2023-02-22T02:32:02.460Z,9.40
2023-02-22T02:34:37.808Z,10.67
2023-02-22T02:37:12.561Z,7.60
2023-02-22T02:39:47.956Z,10.67
2023-02-22T02:42:23.249Z,10.27
2023-02-22T02:44:57.700Z,11.63
2023-02-22T02:47:31.773Z,10.17
2023-02-22T02:50:06.784Z,9.00
2023-02-22T02:52:44.119Z,9.73
2023-02-22T02:55:13.624Z,10.33
2023-02-22T02:57:43.026Z,8.33
2023-02-22T03:00:22.643Z,10.70
2023-02-22T03:03:09.010Z,11.07
2023-02-22T03:06:03.623Z,9.33
2023-02-22T03:08:43.137Z,10.70
2023-02-22T03:11:16.226Z,9.77
2023-02-22T03:13:55.594Z,9.90
2023-02-22T03:16:35.187Z,8.17
2023-02-22T03:19:10.649Z,9.70
2023-02-22T03:21:46.992Z,12.57
2023-02-22T03:24:22.070Z,9.30
2023-02-22T03:26:58.880Z,8.60
2023-02-22T03:29:30.825Z,9.50
2023-02-22T03:32:01.543Z,8.83
2023-02-22T03:34:37.882Z,10.77
2023-02-22T03:37:14.676Z,10.10
2023-02-22T03:39:47.700Z,7.93
2023-02-22T03:42:20.910Z,9.90
2023-02-22T03:44:51.266Z,9.23
2023-02-22T03:47:24.662Z,8.53
2023-02-22T03:49:59.625Z,9.80
2023-02-22T03:52:28.129Z,9.13
2023-02-22T03:54:57.850Z,10.47
2023-02-22T03:57:29.912Z,9.50
2023-02-22T04:00:09.770Z,11.27
2023-02-22T04:02:45.730Z,10.33
2023-02-22T04:05:20.276Z,8.97
2023-02-22T04:07:49.540Z,9.33
2023-02-22T04:10:19.700Z,7.33
2023-02-22T04:12:48.099Z,9.77
2023-02-22T04:15:20.137Z,9.03
2023-02-22T04:17:49.859Z,8.13
2023-02-22T04:20:20.832Z,9.93
2023-02-22T04:22:55.249Z,9.40
2023-02-22T04:25:25.625Z,9.33
2023-02-22T04:27:54.440Z,8.13
2023-02-22T04:30:34.448Z,11.63
2023-02-22T04:33:04.536Z,9.03
2023-02-22T04:35:35.477Z,8.43
2023-02-22T04:38:05.044Z,9.40
2023-02-22T04:40:35.222Z,9.93
2023-02-22T04:43:03.634Z,9.03
2023-02-22T04:45:32.108Z,8.47
2023-02-22T04:48:00.954Z,9.63
2023-02-22T04:50:29.408Z,8.33
2023-02-22T04:52:57.992Z,7.97
2023-02-22T04:55:28.140Z,8.03
2023-02-22T04:57:58.726Z,7.17
2023-02-22T05:00:27.558Z,10.47
2023-02-22T05:03:01.040Z,9.10
2023-02-22T05:05:29.534Z,9.07
2023-02-22T05:07:57.841Z,9.33
2023-02-22T05:10:26.280Z,10.47
2023-02-22T05:12:54.630Z,8.63
2023-02-22T05:15:25.872Z,9.13
2023-02-22T05:17:54.545Z,8.73
2023-02-22T05:20:27.830Z,8.93
2023-02-22T05:22:56.765Z,8.73
2023-02-22T05:25:25.424Z,9.53
2023-02-22T05:27:56.112Z,9.17
2023-02-22T05:30:30.053Z,8.10
2023-02-22T05:32:59.343Z,7.97
2023-02-22T05:35:28.934Z,9.00
2023-02-22T05:37:57.540Z,9.03
2023-02-22T05:40:27.918Z,8.87
2023-02-22T05:42:56.805Z,10.43
2023-02-22T05:45:29.062Z,7.90
2023-02-22T05:47:58.082Z,8.63
2023-02-22T05:50:27.235Z,9.10
2023-02-22T05:52:56.179Z,8.70
2023-02-22T05:55:25.432Z,7.83
2023-02-22T05:57:54.665Z,8.70
2023-02-22T06:00:27.400Z,8.27
2023-02-22T06:02:57.400Z,8.20
2023-02-22T06:05:26.146Z,9.23
2023-02-22T06:07:54.606Z,8.50
2023-02-22T06:10:23.443Z,9.47
2023-02-22T06:12:54.054Z,7.73
2023-02-22T06:15:26.322Z,9.00
2023-02-22T06:17:56.675Z,8.00
2023-02-22T06:20:27.372Z,7.70
2023-02-22T06:22:58.796Z,9.97
2023-02-22T06:25:31.220Z,10.00
2023-02-22T06:28:00.035Z,8.77
2023-02-22T06:30:31.119Z,8.57
2023-02-22T06:32:59.515Z,8.97
2023-02-22T06:35:27.868Z,9.90
2023-02-22T06:37:56.185Z,10.57
2023-02-22T06:40:24.445Z,10.23
2023-02-22T06:42:53.715Z,10.77
2023-02-22T06:45:22.306Z,10.63
2023-02-22T06:47:52.033Z,9.57
2023-02-22T06:50:23.797Z,10.73
2023-02-22T06:52:52.882Z,8.77
2023-02-22T06:55:25.475Z,10.87
2023-02-22T06:57:54.136Z,10.27
2023-02-22T07:00:25.772Z,10.63
2023-02-22T07:02:56.880Z,8.97
2023-02-22T07:05:27.319Z,10.37
2023-02-22T07:08:03.293Z,11.30
2023-02-22T07:10:34.074Z,13.03
2023-02-22T07:13:03.453Z,9.33
2023-02-22T07:15:33.715Z,10.57
2023-02-22T07:18:03.639Z,9.23
2023-02-22T07:20:32.703Z,12.70
2023-02-22T07:23:01.614Z,12.83
2023-02-22T07:25:29.925Z,13.30
2023-02-22T07:27:58.439Z,13.17
2023-02-22T07:30:31.096Z,13.63
2023-02-22T07:33:02.861Z,11.63
2023-02-22T07:35:33.287Z,12.40
2023-02-22T07:38:01.689Z,14.13
2023-02-22T07:40:30.415Z,12.43
2023-02-22T07:43:01.267Z,14.40
2023-02-22T07:45:32.524Z,10.47
2023-02-22T07:48:04.804Z,11.13
2023-02-22T07:50:35.012Z,10.90
2023-02-22T07:53:06.520Z,10.40
2023-02-22T07:55:35.809Z,10.07
2023-02-22T07:58:07.910Z,10.23
2023-02-22T08:00:39.268Z,8.43
2023-02-22T08:03:11.501Z,8.67
2023-02-22T08:05:42.455Z,7.70
2023-02-22T08:08:10.862Z,9.43
2023-02-22T08:10:39.238Z,9.00
2023-02-22T08:13:07.639Z,8.13
2023-02-22T08:15:38.225Z,7.83
2023-02-22T08:18:10.893Z,9.93
2023-02-22T08:20:40.487Z,9.53
2023-02-22T08:23:09.825Z,6.70
2023-02-22T08:25:38.211Z,8.97
2023-02-22T08:28:09.023Z,9.07
2023-02-22T08:30:40.619Z,8.37
2023-02-22T08:33:14.468Z,7.07
2023-02-22T08:35:43.817Z,9.07
2023-02-22T08:38:20.396Z,6.97
2023-02-22T08:40:50.379Z,7.53
2023-02-22T08:43:20.011Z,9.00
2023-02-22T08:45:48.913Z,7.23
2023-02-22T08:48:20.750Z,7.60
2023-02-22T08:50:49.927Z,9.30
2023-02-22T08:53:19.128Z,11.90
2023-02-22T08:55:47.832Z,9.70
2023-02-22T08:58:16.221Z,9.27
2023-02-22T09:00:45.167Z,9.03
2023-02-22T09:03:15.566Z,13.27
2023-02-22T09:05:45.976Z,10.13
2023-02-22T09:08:14.417Z,10.53
2023-02-22T09:10:42.797Z,12.50
2023-02-22T09:13:11.186Z,14.33
2023-02-22T09:15:40.755Z,11.90
2023-02-22T09:18:14.593Z,10.87
2023-02-22T09:20:44.507Z,13.40
2023-02-22T09:23:14.533Z,13.73
2023-02-22T09:25:42.922Z,12.57
2023-02-22T09:28:11.222Z,16.07
2023-02-22T09:30:39.586Z,15.83
2023-02-22T09:33:11.076Z,14.50
2023-02-22T09:35:42.468Z,11.73
2023-02-22T09:38:13.031Z,13.57
2023-02-22T09:40:49.479Z,11.73
2023-02-22T09:43:36.545Z,10.83
2023-02-22T09:46:20.317Z,14.20
2023-02-22T09:49:03.177Z,14.60
2023-02-22T09:51:41.250Z,12.20
2023-02-22T09:54:24.013Z,12.77
2023-02-22T09:56:58.500Z,12.50
2023-02-22T09:59:32.883Z,13.70
2023-02-22T10:02:22.135Z,11.50
2023-02-22T10:04:58.989Z,10.07
2023-02-22T10:07:34.003Z,11.73
2023-02-22T10:10:06.517Z,13.37
2023-02-22T10:12:47.255Z,10.67
2023-02-22T10:15:42.326Z,16.13
2023-02-22T10:19:22.515Z,10.73
2023-02-22T10:22:08.688Z,12.53
2023-02-22T10:24:54.166Z,12.13
2023-02-22T10:27:32.822Z,8.47
2023-02-22T10:30:23.400Z,11.00
2023-02-22T10:32:59.991Z,12.43
2023-02-22T10:35:32.847Z,12.23
2023-02-22T10:38:16.561Z,10.90
2023-02-22T10:40:49.594Z,9.30
2023-02-22T10:43:19.986Z,10.17
2023-02-22T10:45:48.533Z,13.63
2023-02-22T10:48:21.100Z,9.73
2023-02-22T10:50:50.598Z,11.57
2023-02-22T10:53:18.961Z,9.60
2023-02-22T10:56:13.842Z,10.50
2023-02-22T10:58:51.332Z,12.37
2023-02-22T11:01:23.829Z,10.33
2023-02-22T11:04:00.269Z,12.00
2023-02-22T11:06:29.060Z,10.33
2023-02-22T11:09:10.323Z,10.53
2023-02-22T11:11:41.219Z,12.20
2023-02-22T11:14:11.778Z,9.57
2023-02-22T11:16:44.176Z,12.20
2023-02-22T11:19:25.789Z,8.20
2023-02-22T11:21:58.706Z,10.77
2023-02-22T11:24:37.316Z,9.33
2023-02-22T11:27:27.084Z,10.20
2023-02-22T11:30:07.717Z,8.53
2023-02-22T11:32:36.571Z,10.00
2023-02-22T11:35:38.663Z,11.87
2023-02-22T11:38:28.788Z,11.07
2023-02-22T11:41:15.504Z,11.83
2023-02-22T11:43:46.246Z,12.83
2023-02-22T11:46:20.111Z,10.90
2023-02-22T11:48:59.424Z,10.47
2023-02-22T11:51:46.376Z,12.40
2023-02-22T11:54:31.289Z,10.67
2023-02-22T11:57:17.215Z,10.43
2023-02-22T12:00:02.715Z,10.43
2023-02-22T12:02:57.468Z,9.43
2023-02-22T12:05:40.570Z,9.77
2023-02-22T12:08:22.283Z,10.70
2023-02-22T12:11:06.370Z,9.83
2023-02-22T12:13:59.884Z,9.40
2023-02-22T12:16:44.215Z,9.77
2023-02-22T12:19:27.060Z,12.53
2023-02-22T12:22:02.410Z,9.50
2023-02-22T12:24:38.674Z,9.40
2023-02-22T12:27:13.269Z,9.67
2023-02-22T12:29:48.108Z,11.43
2023-02-22T12:32:22.473Z,12.27
2023-02-22T12:34:57.287Z,12.13
2023-02-22T12:37:30.806Z,7.63
2023-02-22T12:40:08.464Z,12.80
2023-02-22T12:42:48.898Z,8.07
2023-02-22T12:45:27.726Z,8.57
2023-02-22T12:48:07.512Z,9.37
2023-02-22T12:50:38.748Z,10.63
2023-02-22T12:53:19.889Z,8.83
2023-02-22T12:55:56.277Z,9.97
2023-02-22T12:58:31.348Z,9.23
2023-02-22T13:01:06.956Z,9.43
2023-02-22T13:03:39.937Z,8.23
2023-02-22T13:06:27.197Z,12.83
2023-02-22T13:09:10.600Z,9.30
2023-02-22T13:11:45.115Z,12.10
2023-02-22T13:14:41.983Z,10.20
2023-02-22T13:17:21.435Z,8.90
2023-02-22T13:19:57.005Z,8.50
2023-02-22T13:22:36.457Z,12.50
2023-02-22T13:25:11.316Z,8.40
2023-02-22T13:27:45.818Z,10.43
2023-02-22T13:30:23.657Z,8.97
2023-02-22T13:33:26.180Z,8.87
2023-02-22T13:36:18.968Z,8.73
2023-02-22T13:39:38.024Z,9.53
2023-02-22T13:42:36.184Z,8.87
2023-02-22T13:45:49.825Z,10.30
2023-02-22T13:48:52.854Z,9.80
2023-02-22T13:51:45.253Z,9.33
2023-02-22T13:54:24.201Z,13.10
2023-02-22T13:56:55.434Z,12.43
2023-02-22T13:59:30.097Z,10.83
2023-02-22T14:01:59.064Z,14.00
2023-02-22T14:04:44.059Z,11.97
2023-02-22T14:07:55.089Z,13.03
2023-02-22T14:10:51.091Z,13.30
2023-02-22T14:13:22.517Z,10.40
2023-02-22T14:16:25.357Z,11.20
2023-02-22T14:19:06.399Z,8.20
2023-02-22T14:21:36.069Z,10.23
2023-02-22T14:24:15.875Z,9.93
2023-02-22T14:26:57.355Z,9.50
2023-02-22T14:29:25.955Z,10.27
2023-02-22T14:32:07.160Z,8.80
2023-02-22T14:34:49.871Z,9.40
2023-02-22T14:37:24.973Z,8.40
2023-02-22T14:39:58.669Z,9.90
2023-02-22T14:42:34.101Z,11.17
2023-02-22T14:45:17.305Z,9.03
2023-02-22T14:47:54.391Z,12.90
2023-02-22T14:50:41.546Z,10.27
2023-02-22T14:53:25.360Z,10.63
2023-02-22T14:59:21.587Z,10.50
2023-02-22T15:02:05.704Z,10.37
2023-02-22T15:04:35.616Z,13.00
2023-02-22T15:07:27.258Z,11.27
2023-02-22T15:10:20.778Z,13.43
2023-02-22T15:13:09.715Z,14.27
2023-02-22T15:15:43.862Z,11.63
2023-02-22T15:18:27.145Z,10.57
2023-02-22T15:20:59.657Z,10.23
2023-02-22T15:23:33.357Z,12.40
2023-02-22T15:26:03.147Z,12.57
2023-02-22T15:28:32.272Z,10.97
2023-02-22T15:31:25.868Z,10.60
2023-02-22T15:33:55.441Z,9.10
2023-02-22T15:36:31.048Z,10.77
2023-02-22T15:38:59.522Z,13.37
2023-02-22T15:41:32.788Z,13.67
2023-02-22T15:44:22.753Z,8.90
2023-02-22T15:46:55.283Z,9.80
2023-02-22T15:49:25.867Z,9.67
2023-02-22T15:52:19.750Z,9.40
2023-02-22T15:54:51.911Z,12.60
2023-02-22T15:57:25.415Z,12.87
2023-02-22T15:59:57.188Z,13.00
2023-02-22T16:02:37.083Z,10.73
2023-02-22T16:05:11.648Z,11.30
2023-02-22T16:07:46.069Z,11.40
2023-02-22T16:10:30.705Z,11.03
2023-02-22T16:13:19.158Z,9.90
2023-02-22T16:16:00.891Z,11.50
2023-02-22T16:18:33.749Z,13.57
2023-02-22T16:21:11.830Z,12.03
2023-02-22T16:23:51.124Z,11.10
2023-02-22T16:26:28.806Z,9.87
2023-02-22T16:28:59.575Z,9.30
2023-02-22T16:31:32.076Z,10.07
2023-02-22T16:34:01.466Z,9.93
2023-02-22T16:36:41.860Z,9.50
2023-02-22T16:39:20.447Z,8.50
2023-02-22T16:41:48.885Z,6.77
2023-02-22T16:44:17.474Z,7.97
2023-02-22T16:46:45.944Z,8.17
2023-02-22T16:49:15.316Z,7.50
2023-02-22T16:51:47.329Z,7.83
2023-02-22T16:54:25.496Z,7.07
2023-02-22T16:56:56.150Z,6.67
2023-02-22T16:59:24.744Z,6.83
2023-02-22T17:01:53.146Z,6.43
2023-02-22T17:04:25.990Z,7.17
2023-02-22T17:06:54.950Z,6.83
2023-02-22T17:09:24.632Z,9.57
2023-02-22T17:11:54.198Z,6.80
2023-02-22T17:14:27.022Z,7.27
2023-02-22T17:16:55.356Z,7.53
2023-02-22T17:19:25.514Z,9.57
2023-02-22T17:21:54.119Z,8.73
2023-02-22T17:24:29.148Z,7.07
2023-02-22T17:26:59.741Z,8.30
2023-02-22T17:29:28.923Z,7.93
2023-02-22T17:31:57.775Z,9.73
2023-02-22T17:34:26.319Z,9.20
2023-02-22T17:36:54.827Z,16.37
2023-02-22T17:39:24.559Z,21.40
2023-02-22T17:41:57.563Z,18.30
2023-02-22T17:44:26.232Z,14.30
2023-02-22T17:46:54.751Z,16.73
2023-02-22T17:49:23.093Z,13.90
2023-02-22T17:51:53.162Z,14.13
2023-02-22T17:54:21.546Z,14.13
2023-02-22T17:56:51.260Z,12.53
2023-02-22T17:59:19.623Z,10.23
2023-02-22T18:01:48.965Z,10.27
2023-02-22T18:04:17.356Z,10.10
2023-02-22T18:06:46.686Z,11.70
2023-02-22T18:09:17.783Z,10.13
2023-02-22T18:11:46.180Z,11.43
2023-02-22T18:14:15.888Z,10.23
2023-02-22T18:16:46.865Z,9.17
2023-02-22T18:19:20.382Z,8.17
2023-02-22T18:21:50.425Z,11.87
2023-02-22T18:24:18.768Z,20.87
2023-02-22T18:26:47.586Z,17.80
2023-02-22T18:29:17.367Z,15.50
2023-02-22T18:31:46.424Z,22.60
2023-02-22T18:34:15.853Z,23.50
2023-02-22T18:36:44.202Z,17.03
2023-02-22T18:39:13.092Z,17.97
2023-02-22T18:41:41.459Z,19.63
2023-02-22T18:44:11.147Z,19.87
2023-02-22T18:46:40.966Z,18.23
2023-02-22T18:49:12.749Z,19.53
2023-02-22T18:51:43.630Z,21.43
2023-02-22T18:54:13.757Z,18.27
2023-02-22T18:56:42.220Z,15.77
2023-02-22T18:59:13.272Z,15.80
2023-02-22T19:01:48.855Z,18.70
2023-02-22T19:04:18.280Z,15.87
2023-02-22T19:06:48.429Z,17.93
2023-02-22T19:09:17.238Z,15.43
2023-02-22T19:11:46.773Z,18.30
2023-02-22T19:14:16.587Z,18.83
2023-02-22T19:16:47.124Z,17.30
2023-02-22T19:19:20.717Z,15.47
2023-02-22T19:21:49.566Z,15.83
2023-02-22T19:24:20.532Z,17.27
2023-02-22T19:26:50.830Z,21.13
2023-02-22T19:29:22.310Z,15.17
2023-02-22T19:31:53.897Z,19.37
2023-02-22T19:34:24.855Z,20.13
2023-02-22T19:36:53.394Z,21.33
2023-02-22T19:41:52.466Z,23.43
2023-02-22T19:44:20.853Z,24.27
2023-02-22T19:46:49.180Z,25.10
2023-02-22T19:49:18.992Z,20.77
2023-02-22T19:51:47.282Z,19.73
2023-02-22T19:54:21.281Z,18.63
2023-02-22T19:56:51.875Z,19.97
2023-02-22T19:59:23.091Z,18.33
2023-02-22T20:01:54.581Z,19.37
2023-02-22T20:04:25.268Z,22.50
2023-02-22T20:06:55.180Z,19.93
2023-02-22T20:09:29.997Z,18.53
2023-02-22T20:11:58.587Z,22.93
2023-02-22T20:14:30.538Z,20.03
2023-02-22T20:16:59.767Z,20.77
2023-02-22T20:19:29.893Z,18.23
2023-02-22T20:22:00.288Z,17.30
2023-02-22T20:24:28.719Z,20.73
2023-02-22T20:26:58.304Z,18.83
2023-02-22T20:29:30.471Z,17.13
2023-02-22T20:32:00.609Z,19.73
2023-02-22T20:34:32.539Z,17.77
2023-02-22T20:37:01.558Z,18.27
2023-02-22T20:39:30.504Z,18.03
2023-02-22T20:42:00.460Z,20.07
2023-02-22T20:44:28.850Z,19.13
2023-02-22T20:46:57.456Z,14.53
2023-02-22T20:49:27.207Z,16.27
2023-02-22T20:51:56.885Z,19.57
2023-02-22T20:54:25.555Z,17.37
2023-02-22T20:56:53.943Z,16.57
2023-02-22T20:59:22.781Z,19.53
2023-02-22T21:01:53.065Z,17.37
2023-02-22T21:04:22.682Z,19.37
2023-02-22T21:06:51.969Z,20.13
2023-02-22T21:09:22.647Z,18.10
2023-02-22T21:11:51.331Z,18.67
2023-02-22T21:14:20.140Z,16.43
2023-02-22T21:16:51.140Z,19.40
2023-02-22T21:19:25.443Z,20.37
2023-02-22T21:21:56.406Z,22.70
2023-02-22T21:24:27.792Z,22.50
2023-02-22T21:26:58.583Z,21.27
2023-02-22T21:29:27.704Z,18.70
2023-02-22T21:31:56.876Z,24.37
2023-02-22T21:34:25.937Z,26.27
2023-02-22T21:36:54.556Z,19.87
2023-02-22T21:39:28.128Z,20.60
2023-02-22T21:42:00.455Z,20.97
2023-02-22T21:44:30.016Z,22.17
2023-02-22T21:46:58.458Z,23.23
2023-02-22T21:49:26.934Z,22.03
2023-02-22T21:51:56.500Z,25.30
2023-02-22T21:54:25.333Z,24.93
2023-02-22T21:56:55.475Z,26.37
2023-02-22T21:59:25.254Z,22.47
2023-02-22T22:01:56.662Z,25.07
2023-02-22T22:04:28.467Z,21.60
2023-02-22T22:06:59.023Z,19.67
2023-02-22T22:09:32.891Z,23.03
2023-02-22T22:12:05.113Z,20.07
2023-02-22T22:14:36.119Z,19.67
2023-02-22T22:17:07.894Z,18.27
2023-02-22T22:19:40.394Z,19.30
2023-02-22T22:22:09.380Z,19.80
2023-02-22T22:24:41.391Z,17.13
2023-02-22T22:27:12.333Z,16.90
2023-02-22T22:29:43.446Z,16.80
2023-02-22T22:32:12.002Z,19.97
2023-02-22T22:34:40.495Z,17.23
2023-02-22T22:37:08.893Z,14.87
2023-02-22T22:39:38.515Z,14.53
2023-02-22T22:42:09.101Z,16.93
2023-02-22T22:44:41.983Z,18.00
2023-02-22T22:47:13.341Z,18.83
2023-02-22T22:49:42.580Z,21.00
2023-02-22T22:52:13.905Z,21.93
2023-02-22T22:54:43.224Z,18.97
2023-02-22T22:57:12.301Z,18.57
2023-02-22T22:59:40.776Z,18.40
2023-02-22T23:02:10.974Z,19.70
2023-02-22T23:04:40.655Z,19.33
2023-02-22T23:07:08.968Z,23.57
2023-02-22T23:09:38.982Z,17.73
2023-02-22T23:12:09.599Z,20.83
2023-02-22T23:14:44.155Z,19.33
2023-02-22T23:17:15.253Z,22.17
2023-02-22T23:19:46.364Z,21.10
2023-02-22T23:22:15.222Z,18.40
2023-02-22T23:24:45.050Z,16.03
2023-02-22T23:27:13.610Z,17.37
2023-02-22T23:29:46.535Z,21.73
2023-02-22T23:32:15.263Z,16.30
2023-02-22T23:34:44.985Z,19.10
2023-02-22T23:37:14.117Z,19.70
2023-02-22T23:39:42.703Z,18.20
2023-02-22T23:42:11.008Z,17.50
2023-02-22T23:44:40.240Z,16.80
2023-02-22T23:47:09.673Z,17.60
2023-02-22T23:49:38.940Z,17.73
2023-02-22T23:52:09.971Z,16.20
2023-02-22T23:54:43.859Z,18.40
2023-02-22T23:57:12.457Z,20.40
2023-02-22T23:59:40.817Z,19.87
